Архив погоды в Гудермесе

Метеограмма Гудермес
Четверг, 20 Июня
Время местн. Темп Ветер Видим Явления Облачность нижн/средн/верх Атм. давл. Влжн Точка росы ВНГО R Сост. почвы Tg s
Напр Скр Прв ур.ст ур.м изм
18:00 +28.3° З 3 - 20 км - преимущественно облачно 750 757 +0.9 53% +17.8° 1 км - - - -
15:00 +33° В,Ю-В 4 - 20 км - преимущественно облачно 750 756 -0.2 22% +8.7° - - - - -
12:00 +35° В,Ю-В 3 - 20 км - переменная облачность 750 756 -0.9 26% +12.8° более 2.5 км - - - -
09:00 +28.6° С-З 1 - 20 км - переменная облачность 751 757 +0.4 44% +15.1° - - - - -
06:00 +21.7° З,С-З 1 - 20 км - переменная облачность 750 757 +0.3 62% +14° более 2.5 км - Сухая (без трещин) - -
03:00 +18.9° Ю-В 1 - 10 км - ясно 750 757 -0.3 70% +13.4° более 2.5 км - - - -
00:00 +21.8° С,С-В 1 - 10 км - ясно 750 757 -0.7 54% +12.2° более 2.5 км - - - -
Среда, 19 Июня
Время местн. Темп Ветер Видим Явления Облачность нижн/средн/верх Атм. давл. Влжн Точка росы ВНГО R Сост. почвы Tg s
Напр Скр Прв ур.ст ур.м изм
21:00 +24.3° В,Ю-В 1 - 10 км - ясно 751 757 +1.1 41% +10.1° более 2.5 км - - - -
18:00 +31.3° В 6 - 20 км - переменная облачность 750 756 0 28% +10.5° - - - - -
15:00 +35° В 5 10 20 км - переменная облачность 750 756 -0.4 20% +8.6° - - - - -
12:00 +34.7° В 3 - 20 км - ясно 750 756 -0.8 24% +11° более 2.5 км - - - -
09:00 +28.6° З 2 - 20 км - ясно 751 757 0 45% +15.6° более 2.5 км - - - -
06:00 +23.8° З 3 - 20 км - ясно 751 758 +0.2 58% +15° более 2.5 км - Сухая (без трещин) - -
03:00 +22.4° Ю-З 2 - 10 км - переменная облачность 751 757 -0.3 63% +14.9° - - - - -
00:00 +21° З 2 - 10 км - ясно 751 758 -0.2 69% +15.2° более 2.5 км - - - -
Вторник, 18 Июня
Время местн. Темп Ветер Видим Явления Облачность нижн/средн/верх Атм. давл. Влжн Точка росы ВНГО R Сост. почвы Tg s
Напр Скр Прв ур.ст ур.м изм
21:00 +25.4° Ю,Ю-В 1 - 10 км - ясно 751 758 +0.9 44% +12.1° более 2.5 км - - - -
18:00 +31.8° В 4 - 20 км - переменная облачность 750 757 -0.1 27% +10.6° - - - - -
15:00 +33° С-В 4 - 20 км - переменная облачность 751 757 -0.9 29% +12.6° 1 км - - - -
12:00 +31.9° С,С-В 2 - 20 км - переменная облачность 751 758 -0.7 37% +15.3° 1 км - - - -
09:00 +27.2° Ю,Ю-З 1 - 20 км - переменная облачность 752 759 +0.1 53% +16.9° - - - - -
06:00 +13.2° С-В 1 - 20 км - переменная облачность 644 - +0.1 90% +11.6° 1 км - Влажная (без луж) - -
03:00 +21° З,С-З 2 - 10 км облака развиваются {ливневые осадки} облачно 752 759 +1 74% +16.2° - - - - -
00:00 +20.5° З,С-З 2 - 10 км облака рассеиваются {ливневые осадки} преимущественно облачно 751 758 -2 81% +17.1° - - - - -
Понедельник, 17 Июня
Время местн. Темп Ветер Видим Явления Облачность нижн/средн/верх Атм. давл. Влжн Точка росы ВНГО R Сост. почвы Tg s
Напр Скр Прв ур.ст ур.м изм
21:00 +20° Ю-З 6 - 4 км слабый ливневый дождь облачно 753 759 +2 83% +17° 600 м - - - -
18:00 +24.6° З 7 11 20 км - облачно 751 757 +2 59% +16.1° 1 км 0 - - -
15:00 +34.1° В 3 - 20 км - преимущественно облачно 749 755 -0.9 25% +11.5° более 2.5 км - - - -